createdAt,value
2022-09-27T00:02:29.543Z,1.40
2022-09-27T00:07:33.776Z,1.17
2022-09-27T00:12:40.435Z,1.50
2022-09-27T00:17:45.550Z,1.20
2022-09-27T00:22:50.685Z,1.48
2022-09-27T00:27:55.850Z,1.52
2022-09-27T00:32:59.073Z,2.03
2022-09-27T00:38:03.234Z,1.88
2022-09-27T00:43:19.137Z,1.30
2022-09-27T00:48:25.000Z,1.35
2022-09-27T00:53:31.102Z,1.80
2022-09-27T00:58:38.430Z,1.60
2022-09-27T01:03:46.605Z,1.80
2022-09-27T01:08:50.340Z,0.98
2022-09-27T01:14:07.080Z,1.40
2022-09-27T01:19:17.409Z,1.50
2022-09-27T01:24:27.824Z,0.90
2022-09-27T01:29:36.393Z,1.70
2022-09-27T01:34:46.865Z,0.70
2022-09-27T01:39:53.679Z,1.60
2022-09-27T01:45:03.042Z,1.70
2022-09-27T01:50:14.010Z,2.22
2022-09-27T01:55:26.610Z,1.90
2022-09-27T02:00:33.341Z,1.10
2022-09-27T02:05:41.463Z,2.28
2022-09-27T02:10:47.692Z,1.73
2022-09-27T02:16:03.407Z,1.73
2022-09-27T02:21:13.992Z,1.42
2022-09-27T02:26:19.860Z,1.50
2022-09-27T02:31:27.397Z,2.10
2022-09-27T02:36:34.249Z,1.65
2022-09-27T02:41:49.804Z,2.25
2022-09-27T02:47:08.473Z,2.15
2022-09-27T02:52:20.802Z,1.35
2022-09-27T02:57:32.349Z,2.90
2022-09-27T03:02:45.536Z,2.30
2022-09-27T03:07:52.073Z,2.00
2022-09-27T03:12:58.695Z,2.60
2022-09-27T03:18:07.783Z,2.55
2022-09-27T03:23:18.401Z,1.35
2022-09-27T03:28:26.250Z,1.05
2022-09-27T03:33:32.521Z,2.42
2022-09-27T03:38:46.111Z,2.75
2022-09-27T03:43:58.416Z,2.20
2022-09-27T03:49:07.702Z,1.75
2022-09-27T03:54:18.206Z,1.55
2022-09-27T03:59:23.640Z,2.40
2022-09-27T04:04:28.274Z,2.03
2022-09-27T04:09:41.192Z,2.55
2022-09-27T04:14:52.579Z,2.65
2022-09-27T04:20:00.283Z,2.28
2022-09-27T04:25:06.704Z,0.40
2022-09-27T04:30:12.868Z,2.10
2022-09-27T04:35:36.390Z,1.80
2022-09-27T04:40:43.652Z,2.38
2022-09-27T04:45:47.912Z,1.95
2022-09-27T04:51:00.865Z,0.65
2022-09-27T04:56:09.124Z,1.52
2022-09-27T05:01:18.255Z,1.13
2022-09-27T05:06:23.964Z,1.05
2022-09-27T05:11:30.150Z,1.83
2022-09-27T05:16:39.251Z,1.13
2022-09-27T05:21:46.415Z,0.60
2022-09-27T05:26:51.765Z,1.30
2022-09-27T05:32:05.919Z,0.93
2022-09-27T05:37:13.354Z,1.38
2022-09-27T05:42:21.708Z,1.20
2022-09-27T05:47:26.834Z,0.90
2022-09-27T05:52:31.554Z,0.52
2022-09-27T05:57:55.208Z,0.65
2022-09-27T06:03:06.428Z,0.60
2022-09-27T06:08:13.668Z,0.80
2022-09-27T06:13:19.745Z,0.88
2022-09-27T06:18:23.467Z,0.70
2022-09-27T06:23:28.217Z,0.50
2022-09-27T06:28:39.356Z,0.50
2022-09-27T06:33:49.444Z,0.68
2022-09-27T06:39:01.647Z,0.55
2022-09-27T06:44:07.497Z,0.50
2022-09-27T06:49:19.625Z,0.73
2022-09-27T06:54:27.973Z,1.00
2022-09-27T06:59:49.693Z,0.60
2022-09-27T07:04:59.454Z,0.85
2022-09-27T07:10:10.035Z,0.80
2022-09-27T07:15:16.460Z,0.68
2022-09-27T07:20:24.748Z,0.98
2022-09-27T07:25:29.707Z,0.80
2022-09-27T07:30:38.079Z,0.93
2022-09-27T07:35:50.595Z,0.80
2022-09-27T07:41:01.696Z,0.80
2022-09-27T07:46:05.164Z,0.75
2022-09-27T07:51:25.177Z,0.40
2022-09-27T07:56:29.725Z,0.73
2022-09-27T08:01:34.906Z,0.80
2022-09-27T08:06:42.642Z,0.40
2022-09-27T08:11:52.654Z,0.32
2022-09-27T08:16:59.069Z,0.20
2022-09-27T08:22:12.262Z,0.20
2022-09-27T08:27:19.067Z,0.20
2022-09-27T08:32:29.018Z,0.10
2022-09-27T08:42:59.269Z,0.40
2022-09-27T08:48:12.645Z,0.55
2022-09-27T08:53:31.014Z,0.40
2022-09-27T08:58:40.273Z,0.90
2022-09-27T09:03:52.744Z,0.35
2022-09-27T09:09:05.520Z,0.40
2022-09-27T09:14:15.833Z,0.70
2022-09-27T09:19:42.882Z,0.60
2022-09-27T09:24:56.150Z,1.00
2022-09-27T09:30:09.965Z,1.20
2022-09-27T09:35:23.455Z,0.98
2022-09-27T09:40:34.514Z,0.45
2022-09-27T09:45:43.516Z,0.40
2022-09-27T09:50:50.747Z,0.50
2022-09-27T09:55:58.679Z,0.45
2022-09-27T10:01:14.646Z,0.40
2022-09-27T10:06:21.300Z,0.40
2022-09-27T10:11:39.904Z,0.50
2022-09-27T10:16:48.814Z,0.40
2022-09-27T10:21:59.427Z,0.50
2022-09-27T10:27:10.797Z,0.40
2022-09-27T10:32:27.366Z,0.20
2022-09-27T10:37:40.823Z,0.50
2022-09-27T10:42:50.017Z,0.60
2022-09-27T10:48:02.021Z,0.30
2022-09-27T10:53:06.965Z,0.45
2022-09-27T10:58:33.005Z,0.70
2022-09-27T11:03:41.456Z,1.20
2022-09-27T11:08:53.867Z,1.70
2022-09-27T11:14:09.307Z,1.58
2022-09-27T11:19:19.457Z,1.50
2022-09-27T11:24:43.389Z,0.68
2022-09-27T11:29:57.821Z,1.08
2022-09-27T11:35:08.288Z,0.63
2022-09-27T11:40:19.011Z,0.30
2022-09-27T11:51:07.793Z,0.77
2022-09-27T11:56:22.068Z,1.20
2022-09-27T12:01:46.067Z,0.40
2022-09-27T12:12:08.323Z,0.52
2022-09-27T12:17:17.137Z,0.70
2022-09-27T12:22:46.751Z,0.77
2022-09-27T12:28:03.680Z,1.02
2022-09-27T12:33:23.246Z,0.73
2022-09-27T12:38:42.555Z,0.85
2022-09-27T12:43:50.420Z,1.60
2022-09-27T12:49:09.925Z,0.80
2022-09-27T12:54:53.409Z,0.73
2022-09-27T13:05:16.412Z,0.80
2022-09-27T13:10:32.726Z,1.10
2022-09-27T13:15:47.953Z,1.17
2022-09-27T13:21:10.399Z,0.60
2022-09-27T13:26:36.721Z,0.85
2022-09-27T13:32:08.451Z,0.80
2022-09-27T13:37:32.409Z,0.50
2022-09-27T13:42:44.660Z,0.32
2022-09-27T13:47:52.677Z,0.40
2022-09-27T13:53:04.641Z,0.30
2022-09-27T13:58:20.240Z,0.40
2022-09-27T14:03:31.137Z,0.40
2022-09-27T14:08:39.131Z,0.70
2022-09-27T14:13:48.854Z,0.60
2022-09-27T14:18:57.988Z,0.60
2022-09-27T14:24:23.863Z,0.85
2022-09-27T14:29:41.144Z,0.50
2022-09-27T14:34:50.382Z,0.50
2022-09-27T14:40:02.690Z,0.32
2022-09-27T14:45:22.666Z,0.63
2022-09-27T14:50:34.457Z,0.60
2022-09-27T14:55:43.608Z,0.40
2022-09-27T15:06:49.847Z,0.73
2022-09-27T15:18:48.307Z,1.00
2022-09-27T15:24:23.121Z,1.05
2022-09-27T15:34:48.164Z,0.63
2022-09-27T15:39:53.070Z,0.80
2022-09-27T15:45:02.934Z,0.90
2022-09-27T15:50:25.053Z,0.98
2022-09-27T15:55:37.270Z,2.42
2022-09-27T16:00:53.120Z,0.30
2022-09-27T16:05:58.635Z,0.98
2022-09-27T16:11:09.536Z,1.85
2022-09-27T16:16:20.549Z,0.80
2022-09-27T16:21:26.192Z,0.85
2022-09-27T16:26:34.965Z,0.80
2022-09-27T16:31:40.279Z,1.30
2022-09-27T16:36:45.870Z,0.80
2022-09-27T16:41:58.704Z,0.88
2022-09-27T16:52:13.240Z,0.63
2022-09-27T16:57:20.685Z,0.98
2022-09-27T17:02:28.228Z,1.00
2022-09-27T17:07:35.532Z,1.00
2022-09-27T17:12:40.961Z,0.80
2022-09-27T17:17:47.393Z,0.73
2022-09-27T17:22:54.133Z,0.63
2022-09-27T17:28:02.780Z,1.20
2022-09-27T17:33:16.957Z,0.90
2022-09-27T17:38:24.909Z,1.45
2022-09-27T17:49:41.347Z,1.05
2022-09-27T17:54:47.423Z,0.73
2022-09-27T17:59:53.621Z,1.00
2022-09-27T18:04:59.093Z,0.73
2022-09-27T18:10:05.635Z,0.93
2022-09-27T18:15:34.210Z,1.10
2022-09-27T18:20:58.601Z,0.93
2022-09-27T18:26:08.839Z,1.10
2022-09-27T18:31:22.373Z,0.75
2022-09-27T18:36:45.344Z,0.80
2022-09-27T18:42:02.546Z,0.63
2022-09-27T18:47:34.494Z,0.50
2022-09-27T19:03:30.134Z,0.38
2022-09-27T19:08:32.915Z,0.47
2022-09-27T19:13:46.061Z,0.60
2022-09-27T19:18:53.441Z,0.30
2022-09-27T19:23:57.043Z,0.50
2022-09-27T19:28:59.903Z,1.07
2022-09-27T19:34:04.121Z,0.20
2022-09-27T19:39:06.913Z,0.57
2022-09-27T19:44:10.140Z,0.50
2022-09-27T19:49:14.447Z,1.00
2022-09-27T19:54:22.411Z,0.82
2022-09-27T19:59:26.098Z,0.63
2022-09-27T20:04:30.714Z,0.52
2022-09-27T20:09:33.709Z,1.10
2022-09-27T20:14:36.543Z,0.68
2022-09-27T20:19:40.685Z,0.70
2022-09-27T20:29:48.154Z,0.85
2022-09-27T20:34:52.343Z,0.40
2022-09-27T20:39:55.545Z,0.60
2022-09-27T20:44:58.919Z,0.32
2022-09-27T20:50:05.902Z,0.35
2022-09-27T20:55:09.104Z,0.60
2022-09-27T21:00:12.619Z,0.30
2022-09-27T21:05:16.916Z,0.20
2022-09-27T21:10:19.635Z,0.30
2022-09-27T21:15:22.244Z,0.50
2022-09-27T21:20:26.945Z,1.25
2022-09-27T21:25:29.794Z,1.85
2022-09-27T21:30:38.161Z,2.58
2022-09-27T21:35:51.101Z,1.27
2022-09-27T21:40:57.217Z,3.92
2022-09-27T21:46:03.258Z,2.80
2022-09-27T21:51:08.677Z,1.58
2022-09-27T21:56:12.116Z,3.88
2022-09-27T22:01:17.210Z,0.70
2022-09-27T22:06:22.118Z,0.40
2022-09-27T22:11:26.603Z,0.20
2022-09-27T22:16:30.563Z,0.10
2022-09-27T22:21:35.711Z,0.30
2022-09-27T22:26:40.726Z,0.10
2022-09-27T22:31:46.294Z,0.52
2022-09-27T22:36:51.245Z,0.22
2022-09-27T22:41:53.968Z,0.32
2022-09-27T22:46:57.083Z,0.22
2022-09-27T22:52:02.651Z,0.40
2022-09-27T22:57:06.005Z,0.35
2022-09-27T23:02:09.827Z,0.13
2022-09-27T23:07:25.185Z,0.30
2022-09-27T23:12:28.113Z,0.60
2022-09-27T23:17:33.202Z,0.55
2022-09-27T23:22:37.424Z,0.30
2022-09-27T23:27:46.433Z,0.50
2022-09-27T23:32:53.413Z,0.50
2022-09-27T23:37:57.790Z,0.50
2022-09-27T23:43:01.732Z,0.45
2022-09-27T23:48:05.237Z,0.30
2022-09-27T23:53:09.357Z,0.23
